Aviation Digital Data Service (ADDS)

Output produced by METARs form (1916 UTC 31 January 2023)
found at http://www.aviationweather.gov/metar/data/
 
KBFD 311853Z AUTO 00000KT 10SM CLR M06/M14 A3015 RMK AO2 SLP237 T10611139 $
KBFD 311811Z AUTO 34005KT 10SM SCT024 M07/M14 A3017 RMK AO2 T10671139 $
KBFD 311753Z AUTO 34003KT 10SM BKN022 M07/M13 A3017 RMK AO2 SLP245 60000 T10671133 11067 21089 58012 $
KBFD 311653Z AUTO VRB04KT 10SM BKN023 M07/M13 A3021 RMK AO2 SNE02 SLP257 P0000 T10721133 $
KBFD 311553Z AUTO 33008KT 10SM -SN OVC020 M08/M14 A3021 RMK AO2 SNB33 SLP260 P0000 T10781139 $
KBFD 311453Z AUTO 30010KT 9SM OVC019 M09/M14 A3021 RMK AO2 SNB1356E50 SLP259 P0000 60000 T10891144 51009 $
KBFD 311353Z AUTO 32011KT 10SM OVC021 M09/M14 A3020 RMK AO2 SNE36 SLP257 P0000 T10891144
KBFD 311253Z AUTO 30012KT 5SM -SN OVC019 M08/M13 A3020 RMK AO2 SLP254 P0000 T10831128
KBFD 311233Z AUTO 30008KT 4SM -SN OVC015 M08/M12 A3020 RMK AO2 P0000 T10781122
KBFD 311153Z AUTO 28012KT 9SM -SN OVC013 M08/M12 A3018 RMK AO2 SNE01B53 SLP248 P0000 60000 70003 I6000 T10781117 11033 21078 53020
KBFD 311053Z AUTO 31009KT 6SM -SN OVC013 M07/M10 A3015 RMK AO2 SLP235 P0000 T10671100
KBFD 310953Z AUTO 33009KT 6SM -SN BKN010 OVC017 M06/M09 A3013 RMK AO2 SNB03 CIG 009V013 SLP228 P0000 T10611094
KBFD 310942Z AUTO 30008KT 6SM -SN BKN012 BKN017 OVC022 M06/M09 A3013 RMK AO2 SNB03 P0000 T10561089
KBFD 310931Z AUTO 29008KT 6SM -SN SCT010 BKN017 OVC022 M06/M09 A3012 RMK AO2 SNB03 P0000 T10561094
KBFD 310907Z AUTO 31007KT 8SM -SN OVC010 M06/M09 A3012 RMK AO2 SNB03 P0000 T10561089
KBFD 310853Z AUTO 32013KT 10SM OVC009 M06/M09 A3012 RMK AO2 SLP223 I3000 T10561089 51008
KBFD 310753Z AUTO 28008KT 10SM OVC009 M04/M08 A3011 RMK AO2 CIG 008V013 SLP218 I1000 T10441078
KBFD 310748Z AUTO 30011KT 10SM OVC011 M04/M08 A3011 RMK AO2 I1000
KBFD 310653Z AUTO 29011KT 5SM HZ OVC009 M04/M07 A3009 RMK AO2 SLP212 I1000 T10391067
KBFD 310635Z AUTO 31009KT 8SM BKN009 OVC014 M04/M07 A3009 RMK AO2 T10391067
KBFD 310605Z AUTO 30009KT 10SM BKN010 OVC014 M03/M07 A3008 RMK AO2 CIG 008V012 T10331067
KBFD 310553Z AUTO 30007KT 9SM BKN009 OVC014 M03/M06 A3007 RMK AO2 SNB01E13 CIG 008V013 SLP206 P0000 60001 T10331061 11028 21033 56005
KBFD 310537Z AUTO 28006KT 9SM OVC009 M03/M06 A3008 RMK AO2 SNB01E13 CIG 008V012 P0000 T10331061
KBFD 310508Z AUTO 30006KT 7SM -SN BKN013 OVC045 M03/M07 A3008 RMK AO2 SNB01 P0000 T10331067
KBFD 310453Z AUTO 27008KT 9SM SCT013 BKN018 OVC046 M03/M07 A3008 RMK AO2 UPB09E40SNE09 SLP208 P0000 T10331067 400061033
KBFD 310448Z AUTO 28009KT 10SM SCT012 BKN018 OVC046 M03/M07 A3007 RMK AO2 UPB09E40SNE09 P0000
KBFD 310353Z AUTO 29007KT 7SM -SN BKN014 OVC020 M03/M06 A3009 RMK AO2 SNE0254B27 SLP211 P0001 T10331061
KBFD 310336Z AUTO 28004KT 5SM -SN FEW010 BKN021 OVC040 M03/M06 A3008 RMK AO2 SNE0254B27 P0001 T10331061
KBFD 310253Z AUTO 28003KT 7SM -SN SCT017 OVC048 M03/M06 A3009 RMK AO2 SNB43 SLP209 P0000 60000 T10331061 55000
KBFD 310153Z AUTO 29006KT 9SM OVC046 M03/M07 A3008 RMK AO2 SNE37 SLP207 P0000 T10281067
KBFD 310053Z AUTO 30007KT 5SM -SN SCT034 OVC046 M03/M06 A3009 RMK AO2 SLP209 P0000 T10281061
KBFD 310038Z AUTO 31007KT 3SM -SN BKN030 OVC046 M03/M06 A3009 RMK AO2 P0000 T10281056
KBFD 310000Z AUTO 31007KT 2 1/2SM -SN SCT009 OVC026 M03/M06 A3009 RMK AO2 P0000 T10281056
KBFD 302353Z AUTO 32010KT 2 1/2SM -SN BKN009 OVC030 M02/M06 A3009 RMK AO2 SLP210 P0000 60001 I6000 T10221056 10006 21022 53010
KBFD 302338Z AUTO 33007KT 2 1/2SM -SN BKN009 OVC028 M02/M05 A3009 RMK AO2 P0000 T10221050
KBFD 302334Z AUTO 33006KT 3SM -SN BKN010 BKN028 OVC044 M02/M05 A3009 RMK AO2 P0000 T10221050
KBFD 302253Z AUTO 33008KT 3SM -SN FEW007 SCT029 OVC043 M02/M05 A3008 RMK AO2 SLP205 P0001 T10171050
KBFD 302250Z AUTO 33008KT 3SM -SN FEW007 BKN030 OVC043 M02/M05 A3008 RMK AO2 P0001
KBFD 302243Z AUTO 32009KT 2SM -SN SCT008 BKN014 OVC043 M02/M04 A3008 RMK AO2 P0001 T10171044
KBFD 302218Z AUTO 32007KT 1 1/4SM -SN BKN008 OVC015 M01/M04 A3008 RMK AO2 P0001 T10111039
KBFD 302153Z AUTO 31005KT 2 1/2SM -SN BR BKN007 BKN034 OVC049 M01/M03 A3006 RMK AO2 SLP198 P0000 T10111033
KBFD 302139Z AUTO 29005KT 1 3/4SM -SN FEW009 BKN032 OVC049 M01/M04 A3006 RMK AO2 P0000 T10111039
KBFD 302131Z AUTO 30004KT 2SM -SN FEW010 OVC034 M01/M04 A3005 RMK AO2 P0000 T10111039
KBFD 302113Z AUTO 30007KT 3SM -SN FEW010 BKN035 OVC050 M01/M04 A3006 RMK AO2 P0000 T10111039
KBFD 302053Z AUTO 30008KT 2SM -SN FEW006 BKN028 OVC050 M01/M03 A3006 RMK AO2 UPE1959SNB1959 SLP198 P0000 60000 I3000 T10061033 53006
KBFD 302040Z AUTO 30005KT 1SM -SN SCT006 BKN011 OVC016 M01/M03 A3004 RMK AO2 UPE1959SNB1959 P0000 T10061033
KBFD 302024Z AUTO 30008KT 3/4SM -SN BR BKN006 OVC011 M01/M03 A3005 RMK AO2 UPE1959SNB1959 P0000 T10061028
KBFD 302014Z AUTO 31005KT 3/4SM -SN BR BKN004 OVC008 M01/M02 A3004 RMK AO2 UPE1959SNB1959 P0000 T10061022
KBFD 302003Z AUTO 31007KT 1 3/4SM -SN BR OVC004 M01/M03 A3003 RMK AO2 UPE1959SNB1959 P0000 T10061028
KBFD 301953Z AUTO 28006KT 3SM UP BR OVC004 00/M02 A3004 RMK AO2 UPB46 SLP190 P0000 T00001022
KBFD 301853Z AUTO 30005KT 6SM BR OVC004 00/M02 A3002 RMK AO2 UPE05 SLP185 P0000 I1000 T00001022
KBFD 301753Z AUTO 28005KT 3SM UP BR OVC004 00/M02 A3004 RMK AO2 UPB46 SLP190 P0000 60001 I6002 T00001017 10006 20000 56019
KBFD 301749Z AUTO 27005KT 3SM UP BR OVC004 00/M02 A3004 RMK AO2 UPB46 P0000
KBFD 301711Z AUTO 27005KT 4SM BR OVC005 01/M02 A3006 RMK AO2 T00061017
KBFD 301653Z AUTO 27007KT 6SM BR OVC004 01/M02 A3008 RMK AO2 SLP204 T00061017
KBFD 301633Z AUTO 29006KT 3SM BR OVC004 01/M02 A3009 RMK AO2 T00061017 $
KBFD 301626Z AUTO 26004KT 2 1/2SM BR OVC004 01/M02 A3009 RMK AO2 T00061017
KBFD 301619Z AUTO 00000KT 2 1/2SM BR OVC006 01/M01 A3008 RMK AO2 T00061011
KBFD 301553Z AUTO 27003KT 5SM BR BKN006 OVC018 01/M02 A3010 RMK AO2 UPB1455E11B37E39SNE1455B27E37 SLP208 P0000 I1001 T00061017
KBFD 301545Z AUTO 26005KT 2 1/2SM BR BKN006 OVC018 01/M01 A3009 RMK AO2 UPB1455E11B37E39SNE1455B27E37 P0000 I1001 T00061011
KBFD 301536Z AUTO 26005KT 1 1/2SM -SN BR OVC004 01/M02 A3010 RMK AO2 UPB1455E11SNE1455B27 P0000 I1001 T00061017
KBFD 301522Z AUTO 26003KT 1 1/2SM BR BKN005 OVC016 01/M01 A3010 RMK AO2 UPB1455E11SNE1455 P0000 I1001 T00061011
KBFD 301453Z AUTO 27004KT 2 1/2SM -SN BR OVC005 01/M02 A3010 RMK AO2 UPB30E32B46E47SNE24B28E30B32E46B47 SLP210 P0000 60001 I3001 T00061017 51010
KBFD 301439Z AUTO 24005KT 2SM -SN BR OVC005 01/M02 A3010 RMK AO2 UPB30E32SNE24B28E30B32 P0000 T00061017
KBFD 301424Z AUTO 24004KT 3SM BR OVC005 01/M02 A3010 RMK AO2 SNE24 CIG 003V008 P0000 T00061017
KBFD 301421Z AUTO 23004KT 2 1/2SM -SN BR OVC004 01/M02 A3010 RMK AO2 P0000 T00061017
KBFD 301353Z AUTO VRB03KT 1 1/4SM -SN BR BKN004 OVC019 00/M02 A3009 RMK AO2 UPB1256E04FZRAB04E08SNB08 SLP207 P0001 I1001 T00001017
KBFD 301253Z AUTO 00000KT 1 1/4SM BR OVC004 00/M02 A3009 RMK AO2 SLP206 T00001017
KBFD 301213Z AUTO 00000KT 4SM BR OVC005 00/M02 A3007 RMK AO2 T00001017 $
KBFD 301153Z AUTO 14003KT 4SM BR OVC004 00/M02 A3007 RMK AO2 UPE29SNB29E53 SLP197 P0000 60000 70007 T00001017 10000 21006 58011 $
KBFD 301144Z AUTO 00000KT 2 1/2SM -SN BR OVC003 00/M02 A3007 RMK AO2 UPE29SNB29 P0000 T00001017 $
KBFD 301136Z AUTO 00000KT 3SM -SN BR OVC003 00/M02 A3008 RMK AO2 UPE29SNB29 P0000 T00001017 $
KBFD 301116Z AUTO 00000KT 3SM UP BR OVC002 00/M02 A3008 RMK AO2 P0000 T00001022 $
KBFD 301105Z AUTO 00000KT 2 1/2SM UP BR OVC002 00/M02 A3008 RMK AO2 P0000 T00001017 $
KBFD 301053Z AUTO 00000KT 1 3/4SM UP BR OVC002 00/M02 A3009 RMK AO2 UPB22 SLP203 P0000 T00001017 $
KBFD 301051Z AUTO 00000KT 1 3/4SM UP BR OVC002 M01/M02 A3009 RMK AO2 UPB22 P0000 $
KBFD 301045Z AUTO 00000KT 2SM UP BR OVC003 M01/M02 A3009 RMK AO2 UPB22 P0000 T10061017 $
KBFD 301010Z AUTO 00000KT 5SM BR OVC004 M01/M02 A3011 RMK AO2 T10061022 $
KBFD 300953Z AUTO 00000KT 6SM BR OVC005 M01/M02 A3010 RMK AO2 SLP210 T10061022 $
KBFD 300907Z AUTO 00000KT 6SM BR OVC006 M01/M03 A3010 RMK AO2 CIG 004V009 T10061028 $
KBFD 300853Z AUTO 25003KT 5SM BR OVC004 M01/M02 A3010 RMK AO2 CIG 004V007 SLP210 T10061022 55001 $
KBFD 300829Z AUTO 27004KT 5SM BR OVC003 M01/M03 A3011 RMK AO2 T10061028 $
KBFD 300817Z AUTO 00000KT 3SM BR OVC002 M01/M02 A3011 RMK AO2 T10061022 $
KBFD 300753Z AUTO 00000KT 2SM BR OVC002 M01/M02 A3009 RMK AO2 SLP206 T10061022 $
KBFD 300728Z AUTO 32005KT 1 1/4SM BR OVC002 M01/M02 A3010 RMK AO2 T10061022 $
KBFD 311912Z 3119/0118 VRB03KT P6SM SCT025 
     FM010700 29005KT P6SM OVC020 
     FM011600 29008G15KT P6SM OVC025